createdAt,value
2019-01-31T00:00:50.619Z,0.00
2019-01-31T00:01:50.545Z,0.00
2019-01-31T00:02:50.469Z,0.00
2019-01-31T00:03:50.388Z,0.00
2019-01-31T00:04:50.310Z,0.00
2019-01-31T00:05:50.245Z,0.00
2019-01-31T00:06:50.178Z,0.00
2019-01-31T00:07:50.097Z,0.00
2019-01-31T00:08:50.022Z,0.00
2019-01-31T00:09:49.942Z,0.00
2019-01-31T00:10:49.870Z,0.00
2019-01-31T00:11:49.811Z,0.00
2019-01-31T00:12:49.735Z,0.00
2019-01-31T00:13:49.671Z,0.00
2019-01-31T00:14:49.609Z,0.00
2019-01-31T00:15:49.502Z,0.00
2019-01-31T00:16:49.426Z,0.00
2019-01-31T00:17:49.421Z,0.00
2019-01-31T00:18:49.286Z,0.00
2019-01-31T00:19:49.223Z,0.00
2019-01-31T00:20:49.146Z,0.00
2019-01-31T00:21:49.074Z,0.00
2019-01-31T00:22:48.990Z,0.00
2019-01-31T00:23:48.931Z,0.00
2019-01-31T00:24:48.863Z,0.00
2019-01-31T00:25:48.788Z,0.00
2019-01-31T00:26:48.709Z,0.00
2019-01-31T00:27:48.622Z,0.00
2019-01-31T00:28:48.547Z,0.00
2019-01-31T00:29:48.479Z,0.00
2019-01-31T00:30:48.404Z,0.00
2019-01-31T00:31:48.343Z,0.00
2019-01-31T00:32:48.269Z,0.00
2019-01-31T00:33:48.203Z,0.00
2019-01-31T00:34:48.122Z,0.00
2019-01-31T00:35:48.036Z,0.00
2019-01-31T00:36:47.958Z,0.00
2019-01-31T00:37:47.902Z,0.00
2019-01-31T00:38:56.495Z,0.00
2019-01-31T00:39:47.741Z,0.00
2019-01-31T00:40:47.692Z,0.00
2019-01-31T00:41:47.601Z,0.00
2019-01-31T00:42:47.522Z,0.00
2019-01-31T00:43:47.538Z,0.00
2019-01-31T00:44:47.393Z,0.00
2019-01-31T00:45:47.316Z,0.00
2019-01-31T00:46:47.262Z,0.00
2019-01-31T00:47:47.219Z,0.00
2019-01-31T00:48:47.080Z,0.00
2019-01-31T00:49:47.010Z,0.00
2019-01-31T00:50:46.938Z,0.00
2019-01-31T00:51:46.877Z,0.00
2019-01-31T00:52:46.886Z,0.00
2019-01-31T00:53:46.717Z,0.00
2019-01-31T00:54:46.641Z,0.00
2019-01-31T00:55:46.579Z,0.00
2019-01-31T00:56:46.515Z,0.00
2019-01-31T00:57:46.433Z,0.00
2019-01-31T00:58:46.363Z,0.00
2019-01-31T00:59:46.276Z,0.00
2019-01-31T01:00:46.202Z,0.00
2019-01-31T01:01:46.145Z,0.00
2019-01-31T01:02:46.072Z,0.00
2019-01-31T01:03:45.993Z,0.00
2019-01-31T01:04:45.913Z,0.00
2019-01-31T01:05:45.834Z,0.00
2019-01-31T01:06:45.763Z,0.00
2019-01-31T01:07:45.701Z,0.00
2019-01-31T01:08:45.630Z,0.00
2019-01-31T01:09:45.541Z,0.00
2019-01-31T01:10:45.467Z,0.00
2019-01-31T01:11:45.405Z,0.00
2019-01-31T01:12:45.332Z,0.00
2019-01-31T01:13:45.257Z,0.00
2019-01-31T01:14:45.187Z,0.00
2019-01-31T01:15:45.102Z,0.00
2019-01-31T01:16:45.030Z,0.00
2019-01-31T01:17:44.961Z,0.00
2019-01-31T01:18:44.881Z,0.00
2019-01-31T01:19:44.834Z,0.00
2019-01-31T01:20:44.756Z,0.00
2019-01-31T01:21:44.672Z,0.00
2019-01-31T01:22:44.605Z,0.00
2019-01-31T01:23:44.515Z,0.00
2019-01-31T01:24:44.457Z,0.00
2019-01-31T01:25:44.381Z,0.00
2019-01-31T01:26:44.374Z,0.00
2019-01-31T01:27:44.219Z,0.00
2019-01-31T01:28:44.148Z,0.00
2019-01-31T01:29:44.075Z,0.00
2019-01-31T01:30:44.003Z,0.00
2019-01-31T01:31:43.942Z,0.00
2019-01-31T01:32:43.872Z,0.00
2019-01-31T01:33:43.794Z,0.00
2019-01-31T01:34:43.723Z,0.00
2019-01-31T01:35:43.634Z,0.00
2019-01-31T01:36:43.566Z,0.00
2019-01-31T01:37:43.490Z,0.00
2019-01-31T01:38:43.416Z,0.00
2019-01-31T01:39:43.352Z,0.00
2019-01-31T01:40:43.283Z,0.00
2019-01-31T01:41:43.196Z,0.00
2019-01-31T01:42:43.118Z,0.00
2019-01-31T01:43:43.061Z,0.00
2019-01-31T01:44:42.984Z,0.00
2019-01-31T01:45:42.923Z,0.00
2019-01-31T01:46:42.841Z,0.00
2019-01-31T01:47:42.753Z,0.00
2019-01-31T01:48:42.683Z,0.00
2019-01-31T01:49:42.609Z,0.00
2019-01-31T01:50:42.536Z,0.00
2019-01-31T01:51:42.477Z,0.00
2019-01-31T01:52:42.401Z,0.00
2019-01-31T01:53:42.326Z,0.00
2019-01-31T01:54:42.254Z,0.00
2019-01-31T01:55:42.169Z,0.00
2019-01-31T01:56:42.090Z,0.00
2019-01-31T01:57:42.033Z,0.00
2019-01-31T01:58:41.965Z,0.00
2019-01-31T01:59:41.876Z,0.00
2019-01-31T02:00:41.796Z,0.00
2019-01-31T02:01:41.744Z,0.00
2019-01-31T02:02:41.651Z,0.00
2019-01-31T02:03:41.593Z,0.00
2019-01-31T02:04:41.526Z,0.00
2019-01-31T02:05:41.432Z,0.00
2019-01-31T02:06:41.359Z,0.00
2019-01-31T02:07:41.301Z,0.00
2019-01-31T02:08:41.226Z,0.00
2019-01-31T02:09:41.146Z,0.00
2019-01-31T02:10:41.072Z,0.00
2019-01-31T02:11:40.996Z,0.00
2019-01-31T02:12:40.920Z,0.00
2019-01-31T02:13:40.855Z,0.00
2019-01-31T02:14:40.787Z,0.00
2019-01-31T02:15:40.695Z,0.00
2019-01-31T02:16:40.621Z,0.00
2019-01-31T02:17:40.547Z,0.00
2019-01-31T02:18:40.477Z,0.00
2019-01-31T02:19:40.417Z,0.00
2019-01-31T02:20:40.349Z,0.00
2019-01-31T02:21:40.264Z,0.00
2019-01-31T02:22:40.195Z,0.00
2019-01-31T02:23:40.108Z,0.00
2019-01-31T02:24:40.036Z,0.00
2019-01-31T02:25:39.961Z,0.00
2019-01-31T02:26:39.917Z,0.00
2019-01-31T02:27:39.827Z,0.00
2019-01-31T02:28:39.747Z,0.00
2019-01-31T02:29:39.666Z,0.00
2019-01-31T02:30:39.592Z,0.00
2019-01-31T02:31:39.534Z,0.00
2019-01-31T02:32:39.459Z,0.00
2019-01-31T02:33:39.390Z,0.00
2019-01-31T02:34:39.313Z,0.00
2019-01-31T02:35:39.226Z,0.00
2019-01-31T02:36:39.152Z,0.00
2019-01-31T02:37:39.104Z,0.00
2019-01-31T02:38:39.008Z,0.00
2019-01-31T02:39:43.202Z,0.00
2019-01-31T02:40:38.853Z,0.00
2019-01-31T02:41:38.775Z,0.00
2019-01-31T02:42:38.698Z,0.00
2019-01-31T02:43:38.639Z,0.00
2019-01-31T02:44:38.563Z,0.00
2019-01-31T02:45:38.478Z,0.00
2019-01-31T02:46:38.401Z,0.00
2019-01-31T02:47:38.343Z,0.00
2019-01-31T02:48:38.268Z,0.00
2019-01-31T02:49:38.190Z,0.00
2019-01-31T02:50:38.116Z,0.00
2019-01-31T02:51:38.036Z,0.00
2019-01-31T02:52:37.953Z,0.00
2019-01-31T02:53:37.879Z,0.00
2019-01-31T02:54:37.807Z,0.00
2019-01-31T02:55:37.742Z,0.00
2019-01-31T02:56:37.671Z,0.00
2019-01-31T02:57:37.592Z,0.00
2019-01-31T02:58:37.517Z,0.00
2019-01-31T02:59:37.432Z,0.00
2019-01-31T03:00:37.362Z,0.00
2019-01-31T03:01:37.294Z,0.00
2019-01-31T03:02:37.235Z,0.00
2019-01-31T03:03:37.129Z,0.00
2019-01-31T03:04:37.067Z,0.00
2019-01-31T03:05:36.981Z,0.00
2019-01-31T03:06:36.907Z,0.00
2019-01-31T03:07:36.856Z,0.00
2019-01-31T03:08:36.767Z,0.00
2019-01-31T03:09:36.683Z,0.00
2019-01-31T03:10:39.358Z,0.00
2019-01-31T03:11:36.537Z,0.00
2019-01-31T03:12:36.467Z,0.00
2019-01-31T03:13:36.395Z,0.00
2019-01-31T03:14:36.317Z,0.00
2019-01-31T03:15:36.232Z,0.00
2019-01-31T03:16:36.175Z,0.00
2019-01-31T03:17:36.090Z,0.00
2019-01-31T03:18:36.018Z,0.00
2019-01-31T03:19:35.928Z,0.00
2019-01-31T03:20:35.852Z,0.00
2019-01-31T03:21:35.781Z,0.00
2019-01-31T03:22:35.695Z,0.00
2019-01-31T03:23:35.642Z,0.00
2019-01-31T03:24:35.577Z,0.00
2019-01-31T03:25:35.484Z,0.00
2019-01-31T03:26:35.416Z,0.00
2019-01-31T03:27:35.321Z,0.00
2019-01-31T03:28:35.241Z,0.00
2019-01-31T03:29:35.203Z,0.00
2019-01-31T03:30:35.097Z,0.00
2019-01-31T03:31:35.035Z,0.00
2019-01-31T03:32:34.953Z,0.00
2019-01-31T03:33:34.871Z,0.00
2019-01-31T03:34:34.793Z,0.00
2019-01-31T03:35:34.722Z,0.00
2019-01-31T03:36:34.647Z,0.00
2019-01-31T03:37:34.575Z,0.00
2019-01-31T03:38:34.503Z,0.00
2019-01-31T03:39:34.413Z,0.00
2019-01-31T03:40:34.337Z,0.00
2019-01-31T03:41:34.263Z,0.00
2019-01-31T03:42:34.186Z,0.00
2019-01-31T03:43:34.125Z,0.00
2019-01-31T03:44:34.046Z,0.00
2019-01-31T03:45:33.968Z,0.00
2019-01-31T03:46:33.898Z,0.00
2019-01-31T03:47:33.809Z,0.00
2019-01-31T03:48:33.736Z,0.00
2019-01-31T03:49:33.673Z,0.00
2019-01-31T03:50:33.595Z,0.00
2019-01-31T03:51:33.506Z,0.00
2019-01-31T03:52:33.442Z,0.00
2019-01-31T03:53:33.368Z,0.00
2019-01-31T03:54:33.289Z,0.00
2019-01-31T03:55:33.215Z,0.00
2019-01-31T03:56:33.141Z,0.00
2019-01-31T03:57:33.067Z,0.00
2019-01-31T03:58:32.991Z,0.00
2019-01-31T03:59:33.025Z,0.00
2019-01-31T04:00:32.830Z,0.00
2019-01-31T04:01:32.749Z,0.00
2019-01-31T04:02:32.678Z,0.00
2019-01-31T04:03:32.778Z,0.00
2019-01-31T04:04:32.538Z,0.00
2019-01-31T04:05:32.454Z,0.00
2019-01-31T04:06:32.375Z,0.00
2019-01-31T04:07:32.315Z,0.00
2019-01-31T04:08:32.237Z,0.00
2019-01-31T04:09:32.162Z,0.00
2019-01-31T04:10:32.084Z,0.00
2019-01-31T04:11:31.995Z,0.00
2019-01-31T04:12:31.924Z,0.00
2019-01-31T04:13:31.874Z,0.00
2019-01-31T04:14:31.785Z,0.00
2019-01-31T04:15:31.698Z,0.00
2019-01-31T04:16:31.625Z,0.00
2019-01-31T04:17:31.565Z,0.00
2019-01-31T04:18:31.477Z,0.00
2019-01-31T04:19:31.402Z,0.00
2019-01-31T04:20:31.328Z,0.00
2019-01-31T04:21:31.242Z,0.00
2019-01-31T04:22:31.172Z,0.00
2019-01-31T04:23:31.102Z,0.00
2019-01-31T04:24:31.033Z,0.00
2019-01-31T04:25:30.957Z,0.00
2019-01-31T04:26:30.878Z,0.00
2019-01-31T04:27:30.792Z,0.00
2019-01-31T04:28:30.998Z,0.00
2019-01-31T04:29:30.637Z,0.00
2019-01-31T04:30:30.567Z,0.00
2019-01-31T04:31:30.500Z,0.00
2019-01-31T04:32:30.538Z,0.00
2019-01-31T04:33:30.356Z,0.00
2019-01-31T04:34:30.275Z,0.00
2019-01-31T04:35:30.190Z,0.00
2019-01-31T04:36:30.110Z,0.00
2019-01-31T04:37:30.048Z,0.00
2019-01-31T04:38:29.970Z,0.00
2019-01-31T04:39:29.880Z,0.00
2019-01-31T04:40:31.508Z,0.00
2019-01-31T04:41:29.731Z,0.00
2019-01-31T04:42:29.656Z,0.00
2019-01-31T04:43:29.591Z,0.00
2019-01-31T04:44:29.514Z,0.00
2019-01-31T04:45:29.446Z,0.00
2019-01-31T04:46:29.364Z,0.00
2019-01-31T04:47:29.273Z,0.00
2019-01-31T04:48:29.197Z,0.00
2019-01-31T04:49:29.136Z,0.00
2019-01-31T04:50:29.047Z,0.00
2019-01-31T04:51:28.986Z,0.00
2019-01-31T04:52:28.915Z,0.00
2019-01-31T04:53:28.818Z,0.00
2019-01-31T04:54:28.739Z,0.00
2019-01-31T04:55:28.674Z,0.00
2019-01-31T04:56:28.600Z,0.00
2019-01-31T04:57:28.547Z,0.00
2019-01-31T04:58:28.450Z,0.00
2019-01-31T04:59:28.362Z,0.00
2019-01-31T05:00:28.284Z,0.00
2019-01-31T05:01:28.214Z,0.00
2019-01-31T05:02:28.131Z,0.00
2019-01-31T05:03:28.063Z,0.00
2019-01-31T05:04:27.992Z,0.00
2019-01-31T05:05:27.930Z,0.00
2019-01-31T05:06:27.840Z,0.00
2019-01-31T05:07:27.746Z,0.00
2019-01-31T05:08:30.879Z,0.00
2019-01-31T05:09:27.661Z,0.00
2019-01-31T05:10:27.532Z,0.00
2019-01-31T05:11:27.449Z,0.00
2019-01-31T05:12:27.369Z,0.00
2019-01-31T05:13:27.308Z,0.00
2019-01-31T05:14:27.218Z,0.00
2019-01-31T05:15:27.153Z,0.00
2019-01-31T05:16:27.086Z,0.00
2019-01-31T05:17:26.991Z,0.00
2019-01-31T05:18:27.047Z,0.00
2019-01-31T05:19:26.850Z,0.00
2019-01-31T05:20:26.773Z,0.00
2019-01-31T05:21:26.696Z,0.00
2019-01-31T05:22:26.637Z,0.00
2019-01-31T05:23:26.537Z,0.00
2019-01-31T05:24:26.463Z,0.00
2019-01-31T05:25:26.397Z,0.00
2019-01-31T05:26:26.326Z,0.00
2019-01-31T05:27:26.232Z,0.00
2019-01-31T05:28:26.154Z,0.00
2019-01-31T05:29:26.082Z,0.00
2019-01-31T05:30:26.005Z,0.00
2019-01-31T05:31:25.944Z,0.00
2019-01-31T05:32:25.866Z,0.00
2019-01-31T05:33:25.788Z,0.00
2019-01-31T05:34:25.713Z,0.00
2019-01-31T05:35:25.627Z,0.00
2019-01-31T05:36:25.572Z,0.00
2019-01-31T05:37:25.471Z,0.00
2019-01-31T05:38:25.398Z,0.00
2019-01-31T05:39:25.328Z,0.00
2019-01-31T05:40:25.265Z,0.00
2019-01-31T05:41:25.170Z,0.00
2019-01-31T05:42:25.094Z,0.00
2019-01-31T05:43:25.029Z,0.00
2019-01-31T05:44:24.952Z,0.00
2019-01-31T05:45:24.878Z,0.00
2019-01-31T05:46:24.799Z,0.00
2019-01-31T05:47:24.718Z,0.00
2019-01-31T05:48:24.639Z,0.00
2019-01-31T05:49:24.564Z,0.00
2019-01-31T05:50:24.490Z,0.00
2019-01-31T05:51:24.418Z,0.00
2019-01-31T05:52:24.342Z,0.00
2019-01-31T05:53:24.278Z,0.00
2019-01-31T05:54:24.194Z,0.00
2019-01-31T05:55:24.107Z,0.00
2019-01-31T05:56:24.045Z,0.00
2019-01-31T05:57:23.964Z,0.00
2019-01-31T05:58:23.885Z,0.00
2019-01-31T05:59:23.798Z,0.00
2019-01-31T06:00:23.722Z,0.00
2019-01-31T06:01:23.644Z,0.00
2019-01-31T06:02:23.571Z,0.00
2019-01-31T06:03:23.502Z,0.00
2019-01-31T06:04:23.426Z,0.00
2019-01-31T06:05:23.361Z,0.00
2019-01-31T06:06:23.274Z,0.00
2019-01-31T06:07:23.200Z,0.00
2019-01-31T06:08:23.112Z,0.00
2019-01-31T06:09:23.033Z,0.00
2019-01-31T06:10:22.957Z,0.00
2019-01-31T06:11:22.890Z,0.00
2019-01-31T06:12:22.814Z,0.00
2019-01-31T06:13:22.732Z,0.00
2019-01-31T06:14:22.649Z,0.00
2019-01-31T06:15:22.588Z,0.00
2019-01-31T06:16:22.515Z,0.00
2019-01-31T06:17:22.437Z,0.00
2019-01-31T06:18:22.367Z,0.00
2019-01-31T06:19:22.267Z,0.00
2019-01-31T06:20:22.209Z,0.00
2019-01-31T06:21:22.218Z,0.00
2019-01-31T06:22:24.881Z,0.00
2019-01-31T06:23:21.961Z,0.00
2019-01-31T06:24:21.888Z,0.00
2019-01-31T06:25:22.099Z,0.00
2019-01-31T06:26:21.799Z,0.00
2019-01-31T06:27:21.672Z,0.00
2019-01-31T06:28:21.598Z,0.00
2019-01-31T06:29:21.507Z,0.00
2019-01-31T06:30:21.460Z,0.00
2019-01-31T06:31:21.366Z,0.00
2019-01-31T06:32:21.293Z,0.00
2019-01-31T06:33:21.263Z,0.00
2019-01-31T06:34:21.175Z,0.00
2019-01-31T06:35:21.043Z,0.00
2019-01-31T06:36:20.973Z,0.00
2019-01-31T06:37:20.897Z,0.00
2019-01-31T06:38:20.818Z,0.00
2019-01-31T06:39:20.761Z,0.00
2019-01-31T06:40:20.678Z,0.00
2019-01-31T06:41:20.601Z,0.00
2019-01-31T06:42:20.529Z,0.00
2019-01-31T06:43:20.437Z,0.00
2019-01-31T06:44:20.359Z,0.00
2019-01-31T06:45:20.294Z,0.00
2019-01-31T06:46:20.216Z,0.00
2019-01-31T06:47:20.128Z,0.00
2019-01-31T06:48:20.052Z,0.00
2019-01-31T06:49:20.119Z,0.00
2019-01-31T06:50:19.899Z,0.00
2019-01-31T06:51:19.834Z,0.00
2019-01-31T06:52:19.758Z,0.00
2019-01-31T06:53:19.669Z,0.00
2019-01-31T06:54:19.597Z,0.00
2019-01-31T06:55:19.528Z,0.00
2019-01-31T06:56:19.446Z,0.00
2019-01-31T06:57:19.372Z,0.00
2019-01-31T06:58:19.322Z,0.00
2019-01-31T06:59:19.205Z,0.00
2019-01-31T07:00:19.147Z,0.00
2019-01-31T07:01:19.073Z,0.00
2019-01-31T07:02:18.991Z,0.00
2019-01-31T07:03:18.903Z,0.00
2019-01-31T07:04:18.827Z,0.00
2019-01-31T07:05:18.750Z,0.00
2019-01-31T07:06:18.673Z,0.00
2019-01-31T07:07:18.608Z,0.00
2019-01-31T07:08:18.571Z,0.00
2019-01-31T07:09:18.457Z,0.00
2019-01-31T07:10:18.379Z,0.00
2019-01-31T07:11:29.400Z,0.00
2019-01-31T07:12:18.217Z,0.00
2019-01-31T07:13:18.137Z,0.00
2019-01-31T07:14:18.065Z,0.00
2019-01-31T07:15:17.996Z,0.00
2019-01-31T07:16:17.920Z,0.00
2019-01-31T07:17:18.393Z,0.00
2019-01-31T07:18:17.758Z,0.00
2019-01-31T07:19:17.689Z,0.00
2019-01-31T07:20:17.615Z,0.00
2019-01-31T07:21:17.535Z,0.00
2019-01-31T07:22:17.456Z,0.00
2019-01-31T07:23:17.372Z,0.00
2019-01-31T07:24:17.292Z,5.63
2019-01-31T07:25:17.228Z,5.63
2019-01-31T07:26:17.158Z,5.63
2019-01-31T07:27:17.071Z,5.63
2019-01-31T07:28:16.989Z,5.63
2019-01-31T07:29:16.915Z,5.63
2019-01-31T07:30:16.837Z,5.63
2019-01-31T07:31:16.768Z,5.63
2019-01-31T07:32:16.697Z,5.63
2019-01-31T07:33:16.606Z,5.63
2019-01-31T07:34:16.528Z,5.63
2019-01-31T07:35:16.468Z,5.63
2019-01-31T07:36:16.388Z,5.63
2019-01-31T07:37:16.318Z,5.63
2019-01-31T07:38:16.239Z,0.00
2019-01-31T07:39:16.145Z,0.00
2019-01-31T07:40:16.078Z,0.00
2019-01-31T07:41:15.993Z,0.00
2019-01-31T07:42:15.928Z,0.00
2019-01-31T07:43:15.849Z,0.00
2019-01-31T07:44:15.777Z,0.00
2019-01-31T07:45:15.702Z,0.00
2019-01-31T07:46:15.611Z,5.63
2019-01-31T07:47:15.537Z,5.63
2019-01-31T07:48:15.471Z,5.63
2019-01-31T07:49:15.395Z,5.63
2019-01-31T07:50:15.303Z,5.63
2019-01-31T07:51:15.227Z,11.25
2019-01-31T07:52:15.151Z,11.25
2019-01-31T07:53:15.087Z,11.25
2019-01-31T07:54:15.010Z,16.88
2019-01-31T07:55:14.928Z,16.88
2019-01-31T07:56:14.859Z,16.88
2019-01-31T07:57:14.775Z,22.50
2019-01-31T07:58:14.684Z,22.50
2019-01-31T07:59:14.630Z,22.50
2019-01-31T08:00:14.536Z,22.50
2019-01-31T08:01:14.463Z,22.50
2019-01-31T08:02:14.389Z,22.50
2019-01-31T08:03:14.319Z,22.50
2019-01-31T08:04:14.233Z,22.50
2019-01-31T08:05:14.167Z,16.88
2019-01-31T08:06:14.083Z,16.88
2019-01-31T08:07:14.005Z,11.25
2019-01-31T08:08:13.931Z,11.25
2019-01-31T08:09:13.858Z,11.25
2019-01-31T08:10:13.778Z,5.63
2019-01-31T08:11:13.691Z,5.63
2019-01-31T08:12:13.608Z,5.63
2019-01-31T08:13:13.535Z,5.63
2019-01-31T08:14:13.491Z,5.63
2019-01-31T08:15:13.396Z,11.25
2019-01-31T08:16:13.321Z,11.25
2019-01-31T08:17:13.244Z,11.25
2019-01-31T08:18:13.217Z,16.88
2019-01-31T08:19:13.072Z,11.25
2019-01-31T08:20:13.009Z,16.88
2019-01-31T08:21:12.932Z,16.88
2019-01-31T08:22:12.843Z,16.88
2019-01-31T08:23:12.765Z,16.88
2019-01-31T08:24:12.693Z,16.88
2019-01-31T08:25:12.613Z,16.88
2019-01-31T08:26:12.548Z,16.88
2019-01-31T08:27:12.468Z,16.88
2019-01-31T08:28:12.387Z,11.25
2019-01-31T08:29:12.318Z,11.25
2019-01-31T08:30:12.239Z,11.25
2019-01-31T08:31:12.160Z,11.25
2019-01-31T08:32:12.088Z,11.25
2019-01-31T08:33:12.013Z,11.25
2019-01-31T08:34:11.923Z,11.25
2019-01-31T08:35:11.840Z,11.25
2019-01-31T08:36:11.775Z,11.25
2019-01-31T08:37:11.696Z,11.25
2019-01-31T08:38:11.616Z,11.25
2019-01-31T08:39:11.543Z,11.25
2019-01-31T08:40:11.457Z,16.88
2019-01-31T08:41:11.385Z,16.88
2019-01-31T08:42:11.312Z,22.50
2019-01-31T08:43:11.342Z,28.13
2019-01-31T08:44:11.169Z,28.13
2019-01-31T08:45:11.088Z,28.13
2019-01-31T08:46:10.994Z,33.75
2019-01-31T08:47:10.919Z,33.75
2019-01-31T08:48:10.837Z,33.75
2019-01-31T08:49:10.781Z,28.13
2019-01-31T08:50:10.701Z,28.13
2019-01-31T08:51:10.623Z,28.13
2019-01-31T08:52:10.538Z,28.13
2019-01-31T08:53:10.458Z,33.75
2019-01-31T08:54:10.391Z,28.13
2019-01-31T08:55:10.314Z,28.13
2019-01-31T08:56:10.245Z,28.13
2019-01-31T08:57:10.177Z,28.13
2019-01-31T08:58:10.082Z,28.13
2019-01-31T08:59:09.991Z,33.75
2019-01-31T09:00:09.919Z,33.75
2019-01-31T09:01:09.923Z,39.38
2019-01-31T09:02:12.467Z,45.00
2019-01-31T09:03:09.696Z,50.63
2019-01-31T09:04:09.624Z,56.25
2019-01-31T09:05:09.544Z,67.50
2019-01-31T09:06:09.451Z,67.50
2019-01-31T09:07:09.381Z,73.13
2019-01-31T09:08:09.309Z,61.88
2019-01-31T09:09:09.234Z,56.25
2019-01-31T09:10:09.150Z,50.63
2019-01-31T09:11:09.077Z,45.00
2019-01-31T09:12:15.478Z,45.00
2019-01-31T09:13:08.917Z,45.00
2019-01-31T09:14:08.850Z,39.38
2019-01-31T09:15:08.779Z,39.38
2019-01-31T09:16:08.697Z,39.38
2019-01-31T09:17:08.625Z,45.00
2019-01-31T09:18:08.533Z,45.00
2019-01-31T09:19:08.484Z,50.63
2019-01-31T09:20:08.377Z,50.63
2019-01-31T09:21:08.303Z,50.63
2019-01-31T09:22:08.233Z,45.00
2019-01-31T09:23:08.168Z,45.00
2019-01-31T09:24:08.069Z,39.38
2019-01-31T09:25:08.011Z,39.38
2019-01-31T09:26:07.934Z,39.38
2019-01-31T09:27:07.854Z,39.38
2019-01-31T09:28:07.772Z,45.00
2019-01-31T09:29:07.699Z,45.00
2019-01-31T09:30:07.607Z,45.00
2019-01-31T09:31:07.529Z,50.63
2019-01-31T09:32:07.463Z,45.00
2019-01-31T09:33:07.392Z,39.38
2019-01-31T09:34:07.299Z,39.38
2019-01-31T09:35:07.222Z,39.38
2019-01-31T09:36:07.147Z,45.00
2019-01-31T09:37:07.073Z,45.00
2019-01-31T09:38:07.004Z,45.00
2019-01-31T09:39:06.926Z,39.38
2019-01-31T09:40:06.845Z,39.38
2019-01-31T09:41:08.522Z,45.00
2019-01-31T09:42:06.698Z,45.00
2019-01-31T09:43:06.640Z,45.00
2019-01-31T09:44:06.549Z,56.25
2019-01-31T09:45:06.469Z,50.63
2019-01-31T09:46:06.375Z,50.63
2019-01-31T09:47:06.301Z,50.63
2019-01-31T09:48:06.222Z,45.00
2019-01-31T09:49:06.147Z,50.63
2019-01-31T09:50:06.092Z,61.88
2019-01-31T09:51:06.011Z,67.50
2019-01-31T09:52:05.931Z,67.50
2019-01-31T09:53:05.853Z,73.13
2019-01-31T09:54:05.765Z,78.75
2019-01-31T09:55:05.683Z,73.13
2019-01-31T09:56:05.626Z,67.50
2019-01-31T09:57:05.552Z,67.50
2019-01-31T09:58:05.459Z,56.25
2019-01-31T09:59:05.387Z,56.25
2019-01-31T10:00:05.307Z,56.25
2019-01-31T10:01:05.232Z,50.63
2019-01-31T10:02:05.172Z,50.63
2019-01-31T10:03:05.086Z,56.25
2019-01-31T10:04:05.016Z,61.88
2019-01-31T10:05:04.940Z,61.88
2019-01-31T10:06:04.861Z,73.13
2019-01-31T10:07:04.778Z,73.13
2019-01-31T10:08:04.695Z,67.50
2019-01-31T10:09:04.628Z,67.50
2019-01-31T10:10:04.586Z,78.75
2019-01-31T10:11:04.483Z,84.38
2019-01-31T10:12:04.429Z,140.63
2019-01-31T10:13:04.372Z,174.38
2019-01-31T10:14:04.331Z,95.63
2019-01-31T10:15:04.204Z,157.50
2019-01-31T10:16:04.113Z,135.00
2019-01-31T10:17:04.061Z,101.25
2019-01-31T10:18:03.994Z,123.75
2019-01-31T10:19:03.874Z,151.88
2019-01-31T10:20:03.800Z,129.38
2019-01-31T10:21:03.715Z,84.38
2019-01-31T10:22:03.694Z,90.00
2019-01-31T10:23:03.614Z,112.50
2019-01-31T10:24:03.502Z,129.38
2019-01-31T10:25:03.534Z,112.50
2019-01-31T10:26:03.337Z,95.63
2019-01-31T10:27:03.271Z,123.75
2019-01-31T10:28:03.198Z,135.00
2019-01-31T10:29:03.127Z,180.00
2019-01-31T10:30:03.033Z,140.63
2019-01-31T10:31:02.966Z,168.75
2019-01-31T10:32:02.892Z,118.13
2019-01-31T10:33:02.837Z,129.38
2019-01-31T10:34:02.749Z,101.25
2019-01-31T10:35:02.676Z,95.63
2019-01-31T10:36:05.610Z,84.38
2019-01-31T10:37:02.515Z,67.50
2019-01-31T10:38:02.447Z,90.00
2019-01-31T10:39:02.383Z,101.25
2019-01-31T10:40:02.296Z,90.00
2019-01-31T10:41:02.220Z,101.25
2019-01-31T10:42:02.138Z,101.25
2019-01-31T10:43:02.063Z,106.88
2019-01-31T10:44:02.028Z,106.88
2019-01-31T10:45:01.925Z,118.13
2019-01-31T10:46:01.849Z,123.75
2019-01-31T10:47:01.759Z,112.50
2019-01-31T10:48:01.695Z,106.88
2019-01-31T10:49:01.610Z,78.75
2019-01-31T10:50:01.549Z,118.13
2019-01-31T10:51:01.476Z,84.38
2019-01-31T10:52:01.394Z,101.25
2019-01-31T10:53:01.327Z,106.88
2019-01-31T10:54:01.237Z,101.25
2019-01-31T10:55:01.166Z,129.38
2019-01-31T10:56:01.089Z,118.13
2019-01-31T10:57:01.015Z,112.50
2019-01-31T10:58:00.948Z,112.50
2019-01-31T10:59:00.878Z,112.50
2019-01-31T11:00:00.787Z,129.38
2019-01-31T11:01:00.715Z,112.50
2019-01-31T11:02:00.654Z,106.88
2019-01-31T11:03:00.575Z,118.13
2019-01-31T11:04:00.499Z,118.13
2019-01-31T11:05:00.427Z,146.25
2019-01-31T11:06:00.338Z,140.63
2019-01-31T11:07:00.265Z,123.75
2019-01-31T11:08:00.221Z,129.38
2019-01-31T11:09:00.133Z,123.75
2019-01-31T11:10:00.049Z,118.13
2019-01-31T11:10:59.986Z,129.38
2019-01-31T11:11:59.897Z,129.38
2019-01-31T11:13:00.981Z,140.63
2019-01-31T11:13:59.760Z,140.63
2019-01-31T11:14:59.684Z,163.13
2019-01-31T11:15:59.607Z,151.88
2019-01-31T11:16:59.532Z,118.13
2019-01-31T11:17:59.471Z,123.75
2019-01-31T11:19:11.128Z,135.00
2019-01-31T11:19:59.316Z,140.63
2019-01-31T11:20:59.243Z,135.00
2019-01-31T11:21:59.158Z,135.00
2019-01-31T11:22:59.079Z,135.00
2019-01-31T11:23:59.006Z,118.13
2019-01-31T11:24:58.940Z,118.13
2019-01-31T11:25:58.877Z,118.13
2019-01-31T11:26:58.800Z,129.38
2019-01-31T11:27:58.723Z,140.63
2019-01-31T11:28:58.649Z,123.75
2019-01-31T11:29:58.566Z,123.75
2019-01-31T11:30:58.490Z,140.63
2019-01-31T11:31:58.434Z,123.75
2019-01-31T11:32:58.355Z,112.50
2019-01-31T11:33:58.276Z,112.50
2019-01-31T11:34:58.201Z,135.00
2019-01-31T11:35:58.128Z,135.00
2019-01-31T11:36:58.058Z,118.13
2019-01-31T11:37:57.998Z,123.75
2019-01-31T11:39:00.062Z,129.38
2019-01-31T11:39:57.838Z,129.38
2019-01-31T11:40:57.765Z,129.38
2019-01-31T11:41:57.703Z,123.75
2019-01-31T11:42:57.630Z,118.13
2019-01-31T11:43:57.558Z,112.50
2019-01-31T11:44:57.484Z,123.75
2019-01-31T11:45:57.397Z,123.75
2019-01-31T11:46:57.325Z,129.38
2019-01-31T11:47:57.267Z,129.38
2019-01-31T11:48:57.194Z,129.38
2019-01-31T11:49:57.105Z,129.38
2019-01-31T11:50:57.029Z,129.38
2019-01-31T11:51:56.967Z,123.75
2019-01-31T11:52:56.887Z,135.00
2019-01-31T11:53:56.825Z,140.63
2019-01-31T11:54:56.753Z,140.63
2019-01-31T11:55:56.675Z,135.00
2019-01-31T11:57:05.280Z,129.38
2019-01-31T11:57:56.527Z,106.88
2019-01-31T11:58:56.449Z,123.75
2019-01-31T11:59:56.375Z,129.38
2019-01-31T12:00:56.308Z,129.38
2019-01-31T12:01:56.244Z,129.38
2019-01-31T12:02:56.171Z,123.75
2019-01-31T12:03:56.085Z,123.75
2019-01-31T12:04:56.011Z,112.50
2019-01-31T12:05:55.961Z,106.88
2019-01-31T12:06:55.877Z,112.50
2019-01-31T12:07:55.798Z,112.50
2019-01-31T12:08:55.731Z,118.13
2019-01-31T12:09:55.699Z,112.50
2019-01-31T12:10:55.574Z,106.88
2019-01-31T12:11:55.505Z,112.50
2019-01-31T12:12:55.533Z,106.88
2019-01-31T12:13:55.363Z,112.50
2019-01-31T12:14:55.311Z,123.75
2019-01-31T12:15:55.222Z,123.75
2019-01-31T12:16:55.154Z,135.00
2019-01-31T12:17:55.065Z,112.50
2019-01-31T12:18:54.993Z,95.63
2019-01-31T12:19:54.934Z,90.00
2019-01-31T12:20:54.856Z,95.63
2019-01-31T12:21:54.773Z,90.00
2019-01-31T12:22:54.703Z,101.25
2019-01-31T12:23:54.623Z,118.13
2019-01-31T12:24:54.553Z,123.75
2019-01-31T12:25:54.490Z,135.00
2019-01-31T12:26:54.419Z,151.88
2019-01-31T12:27:54.344Z,168.75
2019-01-31T12:28:54.281Z,157.50
2019-01-31T12:29:54.187Z,151.88
2019-01-31T12:30:54.115Z,118.13
2019-01-31T12:31:54.053Z,129.38
2019-01-31T12:32:53.969Z,112.50
2019-01-31T12:33:53.912Z,118.13
2019-01-31T12:34:53.831Z,129.38
2019-01-31T12:35:53.745Z,118.13
2019-01-31T12:36:53.681Z,140.63
2019-01-31T12:37:53.616Z,112.50
2019-01-31T12:38:54.990Z,140.63
2019-01-31T12:39:53.467Z,129.38
2019-01-31T12:40:53.396Z,146.25
2019-01-31T12:41:53.309Z,163.13
2019-01-31T12:42:53.237Z,140.63
2019-01-31T12:43:53.194Z,135.00
2019-01-31T12:44:53.101Z,157.50
2019-01-31T12:45:53.019Z,135.00
2019-01-31T12:46:52.944Z,163.13
2019-01-31T12:47:52.875Z,157.50
2019-01-31T12:48:52.863Z,140.63
2019-01-31T12:49:52.746Z,129.38
2019-01-31T12:50:52.670Z,157.50
2019-01-31T12:51:52.585Z,151.88
2019-01-31T12:52:52.511Z,118.13
2019-01-31T12:53:52.448Z,140.63
2019-01-31T12:54:52.380Z,140.63
2019-01-31T12:55:52.307Z,146.25
2019-01-31T12:56:52.239Z,135.00
2019-01-31T12:57:52.155Z,140.63
2019-01-31T12:58:52.081Z,123.75
2019-01-31T12:59:52.024Z,146.25
2019-01-31T13:00:51.939Z,118.13
2019-01-31T13:01:51.874Z,123.75